sensor_id;sensor_type;location;lat;lon;timestamp;temperature;humidity
25918;DHT22;13899;51.174;4.456;2022-08-11T00:00:11;23.60;91.90
25918;DHT22;13899;51.174;4.456;2022-08-11T00:02:39;23.60;91.90
25918;DHT22;13899;51.174;4.456;2022-08-11T00:05:08;23.40;92.90
25918;DHT22;13899;51.174;4.456;2022-08-11T00:07:42;23.30;93.00
25918;DHT22;13899;51.174;4.456;2022-08-11T00:10:13;23.20;93.50
25918;DHT22;13899;51.174;4.456;2022-08-11T00:12:42;23.20;94.20
25918;DHT22;13899;51.174;4.456;2022-08-11T00:15:10;23.20;94.00
25918;DHT22;13899;51.174;4.456;2022-08-11T00:17:36;23.30;94.10
25918;DHT22;13899;51.174;4.456;2022-08-11T00:20:08;23.30;94.00
25918;DHT22;13899;51.174;4.456;2022-08-11T00:22:38;23.20;94.30
25918;DHT22;13899;51.174;4.456;2022-08-11T00:25:17;23.00;95.00
25918;DHT22;13899;51.174;4.456;2022-08-11T00:27:43;23.10;95.00
25918;DHT22;13899;51.174;4.456;2022-08-11T00:30:11;23.00;95.80
25918;DHT22;13899;51.174;4.456;2022-08-11T00:32:40;23.00;95.80
25918;DHT22;13899;51.174;4.456;2022-08-11T00:35:09;22.80;96.00
25918;DHT22;13899;51.174;4.456;2022-08-11T00:37:37;22.90;96.30
25918;DHT22;13899;51.174;4.456;2022-08-11T00:40:07;22.80;96.60
25918;DHT22;13899;51.174;4.456;2022-08-11T00:45:44;22.50;98.60
25918;DHT22;13899;51.174;4.456;2022-08-11T00:48:39;22.40;99.70
25918;DHT22;13899;51.174;4.456;2022-08-11T00:54:18;22.40;99.90
25918;DHT22;13899;51.174;4.456;2022-08-11T01:00:13;22.60;99.90
25918;DHT22;13899;51.174;4.456;2022-08-11T01:14:21;22.30;99.90
25918;DHT22;13899;51.174;4.456;2022-08-11T01:39:45;22.20;99.90
25918;DHT22;13899;51.174;4.456;2022-08-11T02:04:35;21.90;99.90
25918;DHT22;13899;51.174;4.456;2022-08-11T02:10:25;21.80;99.90
25918;DHT22;13899;51.174;4.456;2022-08-11T02:16:02;21.80;99.90
25918;DHT22;13899;51.174;4.456;2022-08-11T02:18:36;21.70;99.90
25918;DHT22;13899;51.174;4.456;2022-08-11T02:21:39;21.70;99.90
25918;DHT22;13899;51.174;4.456;2022-08-11T02:24:29;21.70;99.90
25918;DHT22;13899;51.174;4.456;2022-08-11T02:27:06;21.60;99.90
25918;DHT22;13899;51.174;4.456;2022-08-11T02:29:58;21.60;99.90
25918;DHT22;13899;51.174;4.456;2022-08-11T02:32:38;21.50;99.90
25918;DHT22;13899;51.174;4.456;2022-08-11T02:36:27;21.60;99.90
25918;DHT22;13899;51.174;4.456;2022-08-11T02:39:27;21.50;99.90
25918;DHT22;13899;51.174;4.456;2022-08-11T02:42:19;21.50;99.90
25918;DHT22;13899;51.174;4.456;2022-08-11T02:47:52;21.50;99.90
25918;DHT22;13899;51.174;4.456;2022-08-11T02:54:11;21.40;99.90
25918;DHT22;13899;51.174;4.456;2022-08-11T02:59:53;21.40;99.90
25918;DHT22;13899;51.174;4.456;2022-08-11T03:13:37;21.20;99.90
25918;DHT22;13899;51.174;4.456;2022-08-11T03:16:50;21.10;99.90
25918;DHT22;13899;51.174;4.456;2022-08-11T03:28:27;20.90;99.90
25918;DHT22;13899;51.174;4.456;2022-08-11T03:31:09;20.90;99.90
25918;DHT22;13899;51.174;4.456;2022-08-11T03:33:46;20.90;99.90
25918;DHT22;13899;51.174;4.456;2022-08-11T03:45:34;20.80;99.90
25918;DHT22;13899;51.174;4.456;2022-08-11T03:53:54;20.70;99.90
25918;DHT22;13899;51.174;4.456;2022-08-11T04:10:31;20.40;99.90
25918;DHT22;13899;51.174;4.456;2022-08-11T04:33:16;20.10;99.90
25918;DHT22;13899;51.174;4.456;2022-08-11T04:39:27;20.00;99.90
25918;DHT22;13899;51.174;4.456;2022-08-11T04:41:52;19.80;99.90
25918;DHT22;13899;51.174;4.456;2022-08-11T04:48:22;19.60;99.90
25918;DHT22;13899;51.174;4.456;2022-08-11T05:00:39;19.50;99.90
25918;DHT22;13899;51.174;4.456;2022-08-11T05:03:37;19.50;99.90
25918;DHT22;13899;51.174;4.456;2022-08-11T05:06:51;19.50;99.90
25918;DHT22;13899;51.174;4.456;2022-08-11T05:09:37;19.60;99.90
25918;DHT22;13899;51.174;4.456;2022-08-11T05:14:51;19.60;99.90
25918;DHT22;13899;51.174;4.456;2022-08-11T05:17:54;19.70;99.90
25918;DHT22;13899;51.174;4.456;2022-08-11T05:20:46;19.90;99.90
25918;DHT22;13899;51.174;4.456;2022-08-11T05:23:33;19.90;99.90
25918;DHT22;13899;51.174;4.456;2022-08-11T05:26:19;20.00;99.90
25918;DHT22;13899;51.174;4.456;2022-08-11T05:29:25;20.10;99.90
25918;DHT22;13899;51.174;4.456;2022-08-11T05:32:12;20.10;99.90
25918;DHT22;13899;51.174;4.456;2022-08-11T05:35:01;20.10;99.90
25918;DHT22;13899;51.174;4.456;2022-08-11T05:40:13;20.20;99.90
25918;DHT22;13899;51.174;4.456;2022-08-11T05:43:01;20.20;99.90
25918;DHT22;13899;51.174;4.456;2022-08-11T05:46:00;20.20;99.90
25918;DHT22;13899;51.174;4.456;2022-08-11T05:48:45;20.30;99.90
25918;DHT22;13899;51.174;4.456;2022-08-11T05:51:42;20.20;99.90
25918;DHT22;13899;51.174;4.456;2022-08-11T05:54:28;20.20;99.90
25918;DHT22;13899;51.174;4.456;2022-08-11T05:57:32;20.30;99.90
25918;DHT22;13899;51.174;4.456;2022-08-11T06:00:03;20.40;99.90
25918;DHT22;13899;51.174;4.456;2022-08-11T06:02:29;20.40;99.90
25918;DHT22;13899;51.174;4.456;2022-08-11T06:04:57;20.30;99.90
25918;DHT22;13899;51.174;4.456;2022-08-11T06:07:29;20.40;99.90
25918;DHT22;13899;51.174;4.456;2022-08-11T06:09:57;20.50;99.90
25918;DHT22;13899;51.174;4.456;2022-08-11T06:12:31;20.50;99.90
25918;DHT22;13899;51.174;4.456;2022-08-11T06:15:03;20.70;99.90
25918;DHT22;13899;51.174;4.456;2022-08-11T06:17:32;20.80;99.90
25918;DHT22;13899;51.174;4.456;2022-08-11T06:20:00;20.90;99.90
25918;DHT22;13899;51.174;4.456;2022-08-11T06:22:27;21.00;99.90
25918;DHT22;13899;51.174;4.456;2022-08-11T06:24:58;21.30;99.90
25918;DHT22;13899;51.174;4.456;2022-08-11T06:27:26;21.10;99.90
25918;DHT22;13899;51.174;4.456;2022-08-11T06:29:54;21.20;99.90
25918;DHT22;13899;51.174;4.456;2022-08-11T06:32:24;21.30;99.90
25918;DHT22;13899;51.174;4.456;2022-08-11T06:38:37;21.50;99.90
25918;DHT22;13899;51.174;4.456;2022-08-11T06:41:22;21.70;99.90
25918;DHT22;13899;51.174;4.456;2022-08-11T06:46:34;21.40;99.90
25918;DHT22;13899;51.174;4.456;2022-08-11T06:49:15;21.50;99.90
25918;DHT22;13899;51.174;4.456;2022-08-11T06:52:05;21.70;99.90
25918;DHT22;13899;51.174;4.456;2022-08-11T06:54:49;21.80;99.90
25918;DHT22;13899;51.174;4.456;2022-08-11T06:57:29;22.00;99.90
25918;DHT22;13899;51.174;4.456;2022-08-11T07:00:16;22.00;99.90
25918;DHT22;13899;51.174;4.456;2022-08-11T07:03:02;22.20;99.90
25918;DHT22;13899;51.174;4.456;2022-08-11T07:05:48;22.30;99.90
25918;DHT22;13899;51.174;4.456;2022-08-11T07:08:41;22.40;99.90
25918;DHT22;13899;51.174;4.456;2022-08-11T07:15:17;22.70;99.90
25918;DHT22;13899;51.174;4.456;2022-08-11T07:18:43;22.90;99.90
25918;DHT22;13899;51.174;4.456;2022-08-11T07:21:42;23.00;99.90
25918;DHT22;13899;51.174;4.456;2022-08-11T07:24:33;23.10;99.90
25918;DHT22;13899;51.174;4.456;2022-08-11T07:27:27;23.30;99.90
25918;DHT22;13899;51.174;4.456;2022-08-11T07:30:39;23.30;99.90
25918;DHT22;13899;51.174;4.456;2022-08-11T07:33:39;23.10;99.90
25918;DHT22;13899;51.174;4.456;2022-08-11T07:36:53;23.40;99.90
25918;DHT22;13899;51.174;4.456;2022-08-11T07:40:22;23.60;99.90
25918;DHT22;13899;51.174;4.456;2022-08-11T07:42:52;23.80;99.90
25918;DHT22;13899;51.174;4.456;2022-08-11T07:46:25;23.80;99.90
25918;DHT22;13899;51.174;4.456;2022-08-11T07:49:10;23.80;99.90
25918;DHT22;13899;51.174;4.456;2022-08-11T07:52:28;24.10;99.90
25918;DHT22;13899;51.174;4.456;2022-08-11T07:55:32;24.10;99.90
25918;DHT22;13899;51.174;4.456;2022-08-11T07:58:23;24.30;99.90
25918;DHT22;13899;51.174;4.456;2022-08-11T08:01:26;24.40;99.90
25918;DHT22;13899;51.174;4.456;2022-08-11T08:04:48;24.50;99.90
25918;DHT22;13899;51.174;4.456;2022-08-11T08:07:52;24.50;99.90
25918;DHT22;13899;51.174;4.456;2022-08-11T08:10:46;24.50;99.90
25918;DHT22;13899;51.174;4.456;2022-08-11T08:13:50;24.50;99.90
25918;DHT22;13899;51.174;4.456;2022-08-11T08:17:13;24.70;99.90
25918;DHT22;13899;51.174;4.456;2022-08-11T08:19:58;24.70;99.90
25918;DHT22;13899;51.174;4.456;2022-08-11T08:22:39;24.70;99.90
25918;DHT22;13899;51.174;4.456;2022-08-11T08:25:13;24.80;99.90
25918;DHT22;13899;51.174;4.456;2022-08-11T08:27:43;25.20;99.90
25918;DHT22;13899;51.174;4.456;2022-08-11T08:30:13;25.30;99.90
25918;DHT22;13899;51.174;4.456;2022-08-11T08:32:58;25.20;99.90
25918;DHT22;13899;51.174;4.456;2022-08-11T08:35:30;25.50;99.90
25918;DHT22;13899;51.174;4.456;2022-08-11T08:37:59;25.50;99.90
25918;DHT22;13899;51.174;4.456;2022-08-11T08:40:26;25.70;99.90
25918;DHT22;13899;51.174;4.456;2022-08-11T08:42:57;25.80;99.90
25918;DHT22;13899;51.174;4.456;2022-08-11T08:45:25;25.80;99.90
25918;DHT22;13899;51.174;4.456;2022-08-11T08:48:23;26.00;99.90
25918;DHT22;13899;51.174;4.456;2022-08-11T08:51:25;26.30;99.90
25918;DHT22;13899;51.174;4.456;2022-08-11T08:54:37;26.30;99.90
25918;DHT22;13899;51.174;4.456;2022-08-11T08:57:43;26.40;99.90
25918;DHT22;13899;51.174;4.456;2022-08-11T09:00:44;26.30;99.90
25918;DHT22;13899;51.174;4.456;2022-08-11T09:03:18;26.40;99.90
25918;DHT22;13899;51.174;4.456;2022-08-11T09:06:14;26.40;99.90
25918;DHT22;13899;51.174;4.456;2022-08-11T09:09:25;26.70;99.90
25918;DHT22;13899;51.174;4.456;2022-08-11T09:12:13;26.80;99.90
25918;DHT22;13899;51.174;4.456;2022-08-11T09:14:55;27.20;99.60
25918;DHT22;13899;51.174;4.456;2022-08-11T09:18:03;27.70;98.50
25918;DHT22;13899;51.174;4.456;2022-08-11T09:21:20;28.80;96.10
25918;DHT22;13899;51.174;4.456;2022-08-11T09:24:41;28.60;96.20
25918;DHT22;13899;51.174;4.456;2022-08-11T09:27:29;28.70;95.60
25918;DHT22;13899;51.174;4.456;2022-08-11T09:30:51;28.90;95.10
25918;DHT22;13899;51.174;4.456;2022-08-11T09:33:58;29.40;93.40
25918;DHT22;13899;51.174;4.456;2022-08-11T09:36:56;29.20;93.70
25918;DHT22;13899;51.174;4.456;2022-08-11T09:39:42;29.20;93.30
25918;DHT22;13899;51.174;4.456;2022-08-11T09:42:27;30.00;92.90
25918;DHT22;13899;51.174;4.456;2022-08-11T09:45:16;30.40;90.60
25918;DHT22;13899;51.174;4.456;2022-08-11T09:47:47;30.30;89.80
25918;DHT22;13899;51.174;4.456;2022-08-11T09:50:15;31.10;89.70
25918;DHT22;13899;51.174;4.456;2022-08-11T09:52:53;32.30;87.30
25918;DHT22;13899;51.174;4.456;2022-08-11T09:55:21;33.00;81.80
25918;DHT22;13899;51.174;4.456;2022-08-11T09:57:50;33.50;79.80
25918;DHT22;13899;51.174;4.456;2022-08-11T10:00:57;32.30;77.50
25918;DHT22;13899;51.174;4.456;2022-08-11T10:03:25;33.10;78.50
25918;DHT22;13899;51.174;4.456;2022-08-11T10:06:08;33.80;74.80
25918;DHT22;13899;51.174;4.456;2022-08-11T10:09:01;33.90;71.20
25918;DHT22;13899;51.174;4.456;2022-08-11T10:11:47;34.20;69.40
25918;DHT22;13899;51.174;4.456;2022-08-11T10:14:33;34.90;67.10
25918;DHT22;13899;51.174;4.456;2022-08-11T10:17:22;35.30;65.50
25918;DHT22;13899;51.174;4.456;2022-08-11T10:19:49;35.50;61.10
25918;DHT22;13899;51.174;4.456;2022-08-11T10:22:17;35.50;61.20
25918;DHT22;13899;51.174;4.456;2022-08-11T10:25:02;35.80;58.80
25918;DHT22;13899;51.174;4.456;2022-08-11T10:27:49;35.80;58.80
25918;DHT22;13899;51.174;4.456;2022-08-11T10:30:26;36.00;57.70
25918;DHT22;13899;51.174;4.456;2022-08-11T10:33:12;36.20;55.50
25918;DHT22;13899;51.174;4.456;2022-08-11T10:35:57;36.80;55.00
25918;DHT22;13899;51.174;4.456;2022-08-11T10:38:27;36.20;53.90
25918;DHT22;13899;51.174;4.456;2022-08-11T10:40:55;36.30;54.50
25918;DHT22;13899;51.174;4.456;2022-08-11T10:43:40;36.70;53.00
25918;DHT22;13899;51.174;4.456;2022-08-11T10:46:08;37.00;52.10
25918;DHT22;13899;51.174;4.456;2022-08-11T10:48:55;37.20;53.00
25918;DHT22;13899;51.174;4.456;2022-08-11T10:51:23;37.50;51.40
25918;DHT22;13899;51.174;4.456;2022-08-11T10:54:08;38.30;50.10
25918;DHT22;13899;51.174;4.456;2022-08-11T10:56:53;37.50;49.70
25918;DHT22;13899;51.174;4.456;2022-08-11T10:59:40;38.00;50.00
25918;DHT22;13899;51.174;4.456;2022-08-11T11:02:10;38.30;48.90
25918;DHT22;13899;51.174;4.456;2022-08-11T11:07:38;38.70;46.90
25918;DHT22;13899;51.174;4.456;2022-08-11T11:10:06;38.30;46.70
25918;DHT22;13899;51.174;4.456;2022-08-11T11:12:39;38.90;47.10
25918;DHT22;13899;51.174;4.456;2022-08-11T11:18:52;39.60;45.90
25918;DHT22;13899;51.174;4.456;2022-08-11T11:21:39;39.70;44.20
25918;DHT22;13899;51.174;4.456;2022-08-11T11:32:34;40.90;42.70
25918;DHT22;13899;51.174;4.456;2022-08-11T11:37:48;41.40;42.10
25918;DHT22;13899;51.174;4.456;2022-08-11T11:40:17;42.00;41.30
25918;DHT22;13899;51.174;4.456;2022-08-11T11:42:48;42.30;40.50
25918;DHT22;13899;51.174;4.456;2022-08-11T11:45:19;42.60;40.70
25918;DHT22;13899;51.174;4.456;2022-08-11T11:47:47;42.60;40.40
25918;DHT22;13899;51.174;4.456;2022-08-11T11:50:22;42.30;40.60
25918;DHT22;13899;51.174;4.456;2022-08-11T11:52:49;42.40;39.60
25918;DHT22;13899;51.174;4.456;2022-08-11T11:55:17;42.40;39.70
25918;DHT22;13899;51.174;4.456;2022-08-11T11:57:44;42.70;39.30
25918;DHT22;13899;51.174;4.456;2022-08-11T12:00:29;43.30;39.20
25918;DHT22;13899;51.174;4.456;2022-08-11T12:03:15;43.10;38.20
25918;DHT22;13899;51.174;4.456;2022-08-11T12:05:42;42.60;37.80
25918;DHT22;13899;51.174;4.456;2022-08-11T12:08:11;43.10;38.60
25918;DHT22;13899;51.174;4.456;2022-08-11T12:13:43;43.80;37.40
25918;DHT22;13899;51.174;4.456;2022-08-11T12:16:13;43.30;37.90
25918;DHT22;13899;51.174;4.456;2022-08-11T12:18:41;43.10;37.40
25918;DHT22;13899;51.174;4.456;2022-08-11T12:21:08;43.70;37.50
25918;DHT22;13899;51.174;4.456;2022-08-11T12:23:36;44.30;37.10
25918;DHT22;13899;51.174;4.456;2022-08-11T12:26:21;43.60;36.00
25918;DHT22;13899;51.174;4.456;2022-08-11T12:29:10;43.70;37.00
25918;DHT22;13899;51.174;4.456;2022-08-11T12:31:37;43.60;36.50
25918;DHT22;13899;51.174;4.456;2022-08-11T12:34:05;44.20;36.40
25918;DHT22;13899;51.174;4.456;2022-08-11T12:36:35;43.40;36.50
25918;DHT22;13899;51.174;4.456;2022-08-11T12:39:05;43.10;36.60
25918;DHT22;13899;51.174;4.456;2022-08-11T12:41:32;42.80;36.90
25918;DHT22;13899;51.174;4.456;2022-08-11T12:44:17;43.30;36.20
25918;DHT22;13899;51.174;4.456;2022-08-11T12:47:04;43.50;35.70
25918;DHT22;13899;51.174;4.456;2022-08-11T12:49:30;44.00;36.00
25918;DHT22;13899;51.174;4.456;2022-08-11T12:52:24;44.50;34.60
25918;DHT22;13899;51.174;4.456;2022-08-11T12:55:05;44.80;35.20
25918;DHT22;13899;51.174;4.456;2022-08-11T12:57:36;44.10;35.70
25918;DHT22;13899;51.174;4.456;2022-08-11T13:00:22;44.70;35.30
25918;DHT22;13899;51.174;4.456;2022-08-11T13:03:09;44.40;34.10
25918;DHT22;13899;51.174;4.456;2022-08-11T13:05:57;44.70;33.70
25918;DHT22;13899;51.174;4.456;2022-08-11T13:08:25;44.30;33.90
25918;DHT22;13899;51.174;4.456;2022-08-11T13:10:52;43.10;33.90
25918;DHT22;13899;51.174;4.456;2022-08-11T13:13:39;42.90;35.00
25918;DHT22;13899;51.174;4.456;2022-08-11T13:16:07;43.00;34.30
25918;DHT22;13899;51.174;4.456;2022-08-11T13:18:34;43.50;34.90
25918;DHT22;13899;51.174;4.456;2022-08-11T13:21:00;43.90;33.70
25918;DHT22;13899;51.174;4.456;2022-08-11T13:23:26;44.90;34.10
25918;DHT22;13899;51.174;4.456;2022-08-11T13:25:54;45.40;34.80
25918;DHT22;13899;51.174;4.456;2022-08-11T13:28:21;45.30;33.70
25918;DHT22;13899;51.174;4.456;2022-08-11T13:30:51;46.20;34.00
25918;DHT22;13899;51.174;4.456;2022-08-11T13:33:54;46.30;33.20
25918;DHT22;13899;51.174;4.456;2022-08-11T13:36:21;46.20;32.40
25918;DHT22;13899;51.174;4.456;2022-08-11T13:38:52;46.70;32.70
25918;DHT22;13899;51.174;4.456;2022-08-11T13:41:19;47.20;32.10
25918;DHT22;13899;51.174;4.456;2022-08-11T13:44:05;47.50;31.80
25918;DHT22;13899;51.174;4.456;2022-08-11T13:46:31;47.20;32.40
25918;DHT22;13899;51.174;4.456;2022-08-11T13:48:58;47.10;32.10
25918;DHT22;13899;51.174;4.456;2022-08-11T13:51:24;46.80;32.50
25918;DHT22;13899;51.174;4.456;2022-08-11T13:54:00;46.70;31.80
25918;DHT22;13899;51.174;4.456;2022-08-11T13:56:27;47.00;32.40
25918;DHT22;13899;51.174;4.456;2022-08-11T13:58:55;46.80;32.10
25918;DHT22;13899;51.174;4.456;2022-08-11T14:01:38;46.60;31.70
25918;DHT22;13899;51.174;4.456;2022-08-11T14:04:10;46.30;31.90
25918;DHT22;13899;51.174;4.456;2022-08-11T14:06:40;46.20;32.40
25918;DHT22;13899;51.174;4.456;2022-08-11T14:09:09;45.80;32.40
25918;DHT22;13899;51.174;4.456;2022-08-11T14:11:35;47.20;32.30
25918;DHT22;13899;51.174;4.456;2022-08-11T14:14:23;46.90;31.60
25918;DHT22;13899;51.174;4.456;2022-08-11T14:16:51;47.60;31.00
25918;DHT22;13899;51.174;4.456;2022-08-11T14:19:21;48.40;31.10
25918;DHT22;13899;51.174;4.456;2022-08-11T14:21:50;48.30;31.10
25918;DHT22;13899;51.174;4.456;2022-08-11T14:24:37;49.20;30.60
25918;DHT22;13899;51.174;4.456;2022-08-11T14:27:06;49.10;30.30
25918;DHT22;13899;51.174;4.456;2022-08-11T14:29:33;48.90;30.90
25918;DHT22;13899;51.174;4.456;2022-08-11T14:32:06;47.80;30.00
25918;DHT22;13899;51.174;4.456;2022-08-11T14:34:33;47.30;30.80
25918;DHT22;13899;51.174;4.456;2022-08-11T14:37:07;47.20;30.90
25918;DHT22;13899;51.174;4.456;2022-08-11T14:39:46;47.30;31.00
25918;DHT22;13899;51.174;4.456;2022-08-11T14:42:14;46.30;31.60
25918;DHT22;13899;51.174;4.456;2022-08-11T14:45:04;46.30;32.00
25918;DHT22;13899;51.174;4.456;2022-08-11T14:47:51;46.60;31.50
25918;DHT22;13899;51.174;4.456;2022-08-11T14:50:23;46.30;31.40
25918;DHT22;13899;51.174;4.456;2022-08-11T14:53:01;45.80;31.10
25918;DHT22;13899;51.174;4.456;2022-08-11T14:55:31;46.20;31.60
25918;DHT22;13899;51.174;4.456;2022-08-11T14:58:20;46.40;31.20
25918;DHT22;13899;51.174;4.456;2022-08-11T15:00:52;45.40;31.00
25918;DHT22;13899;51.174;4.456;2022-08-11T15:03:19;44.20;31.90
25918;DHT22;13899;51.174;4.456;2022-08-11T15:05:54;43.00;31.80
25918;DHT22;13899;51.174;4.456;2022-08-11T15:08:21;41.80;32.00
25918;DHT22;13899;51.174;4.456;2022-08-11T15:11:12;41.00;32.80
25918;DHT22;13899;51.174;4.456;2022-08-11T15:14:00;40.10;33.30
25918;DHT22;13899;51.174;4.456;2022-08-11T15:16:26;39.00;34.10
25918;DHT22;13899;51.174;4.456;2022-08-11T15:19:12;38.20;34.50
25918;DHT22;13899;51.174;4.456;2022-08-11T15:21:38;38.20;34.80
25918;DHT22;13899;51.174;4.456;2022-08-11T15:24:22;37.80;35.00
25918;DHT22;13899;51.174;4.456;2022-08-11T15:26:48;37.30;35.40
25918;DHT22;13899;51.174;4.456;2022-08-11T15:29:35;37.30;35.60
25918;DHT22;13899;51.174;4.456;2022-08-11T15:32:20;37.00;35.90
25918;DHT22;13899;51.174;4.456;2022-08-11T15:34:58;36.90;36.10
25918;DHT22;13899;51.174;4.456;2022-08-11T15:37:44;36.70;36.10
25918;DHT22;13899;51.174;4.456;2022-08-11T15:40:24;36.70;35.80
25918;DHT22;13899;51.174;4.456;2022-08-11T15:43:18;36.70;36.40
25918;DHT22;13899;51.174;4.456;2022-08-11T15:46:10;36.70;36.50
25918;DHT22;13899;51.174;4.456;2022-08-11T15:48:44;36.60;36.40
25918;DHT22;13899;51.174;4.456;2022-08-11T15:51:35;36.60;36.60
25918;DHT22;13899;51.174;4.456;2022-08-11T15:54:22;36.80;36.60
25918;DHT22;13899;51.174;4.456;2022-08-11T15:56:51;36.40;36.40
25918;DHT22;13899;51.174;4.456;2022-08-11T15:59:18;36.40;36.40
25918;DHT22;13899;51.174;4.456;2022-08-11T16:02:05;36.30;36.20
25918;DHT22;13899;51.174;4.456;2022-08-11T16:04:51;36.50;36.50
25918;DHT22;13899;51.174;4.456;2022-08-11T16:07:20;36.20;36.80
25918;DHT22;13899;51.174;4.456;2022-08-11T16:09:56;35.90;36.70
25918;DHT22;13899;51.174;4.456;2022-08-11T16:15:13;36.20;36.70
25918;DHT22;13899;51.174;4.456;2022-08-11T16:18:02;36.00;36.70
25918;DHT22;13899;51.174;4.456;2022-08-11T16:20:31;35.90;36.60
25918;DHT22;13899;51.174;4.456;2022-08-11T16:23:05;35.70;36.80
25918;DHT22;13899;51.174;4.456;2022-08-11T16:25:39;35.80;37.20
25918;DHT22;13899;51.174;4.456;2022-08-11T16:28:05;36.10;36.80
25918;DHT22;13899;51.174;4.456;2022-08-11T16:30:36;36.40;36.70
25918;DHT22;13899;51.174;4.456;2022-08-11T16:33:08;36.60;37.00
25918;DHT22;13899;51.174;4.456;2022-08-11T16:35:54;36.50;37.20
25918;DHT22;13899;51.174;4.456;2022-08-11T16:38:40;36.00;37.60
25918;DHT22;13899;51.174;4.456;2022-08-11T16:41:30;35.90;37.90
25918;DHT22;13899;51.174;4.456;2022-08-11T16:44:19;35.70;38.30
25918;DHT22;13899;51.174;4.456;2022-08-11T16:47:12;35.30;38.50
25918;DHT22;13899;51.174;4.456;2022-08-11T16:49:55;35.10;38.50
25918;DHT22;13899;51.174;4.456;2022-08-11T16:52:24;34.90;38.80
25918;DHT22;13899;51.174;4.456;2022-08-11T16:54:51;35.00;38.30
25918;DHT22;13899;51.174;4.456;2022-08-11T16:57:25;34.80;38.60
25918;DHT22;13899;51.174;4.456;2022-08-11T17:00:13;35.10;39.20
25918;DHT22;13899;51.174;4.456;2022-08-11T17:02:48;35.10;38.90
25918;DHT22;13899;51.174;4.456;2022-08-11T17:05:50;34.90;39.10
25918;DHT22;13899;51.174;4.456;2022-08-11T17:09:00;34.90;39.70
25918;DHT22;13899;51.174;4.456;2022-08-11T17:11:53;34.60;39.50
25918;DHT22;13899;51.174;4.456;2022-08-11T17:14:50;34.60;40.00
25918;DHT22;13899;51.174;4.456;2022-08-11T17:17:27;34.40;40.00
25918;DHT22;13899;51.174;4.456;2022-08-11T17:20:02;34.10;40.10
25918;DHT22;13899;51.174;4.456;2022-08-11T17:22:35;34.20;40.80
25918;DHT22;13899;51.174;4.456;2022-08-11T17:25:46;34.10;41.10
25918;DHT22;13899;51.174;4.456;2022-08-11T17:28:14;34.20;40.80
25918;DHT22;13899;51.174;4.456;2022-08-11T17:30:45;33.90;40.70
25918;DHT22;13899;51.174;4.456;2022-08-11T17:33:32;33.90;41.20
25918;DHT22;13899;51.174;4.456;2022-08-11T17:36:33;33.80;41.10
25918;DHT22;13899;51.174;4.456;2022-08-11T17:39:01;33.70;40.70
25918;DHT22;13899;51.174;4.456;2022-08-11T17:41:31;33.70;40.80
25918;DHT22;13899;51.174;4.456;2022-08-11T17:44:15;33.70;41.00
25918;DHT22;13899;51.174;4.456;2022-08-11T17:53:59;33.30;42.10
25918;DHT22;13899;51.174;4.456;2022-08-11T17:56:54;33.00;42.00
25918;DHT22;13899;51.174;4.456;2022-08-11T17:59:46;33.10;41.90
25918;DHT22;13899;51.174;4.456;2022-08-11T18:02:38;33.00;42.20
25918;DHT22;13899;51.174;4.456;2022-08-11T18:05:46;32.80;42.00
25918;DHT22;13899;51.174;4.456;2022-08-11T18:43:14;31.10;45.10
25918;DHT22;13899;51.174;4.456;2022-08-11T18:48:56;31.10;44.50
25918;DHT22;13899;51.174;4.456;2022-08-11T18:52:03;31.10;44.80
25918;DHT22;13899;51.174;4.456;2022-08-11T18:55:27;30.90;45.00
25918;DHT22;13899;51.174;4.456;2022-08-11T18:58:22;30.90;45.80
25918;DHT22;13899;51.174;4.456;2022-08-11T19:19:34;30.30;47.00
25918;DHT22;13899;51.174;4.456;2022-08-11T19:25:56;30.20;47.40
25918;DHT22;13899;51.174;4.456;2022-08-11T19:28:45;30.30;47.20
25918;DHT22;13899;51.174;4.456;2022-08-11T19:31:31;30.30;47.30
25918;DHT22;13899;51.174;4.456;2022-08-11T19:36:55;30.10;47.90
25918;DHT22;13899;51.174;4.456;2022-08-11T19:39:43;29.90;48.20
25918;DHT22;13899;51.174;4.456;2022-08-11T19:45:02;29.90;48.30
25918;DHT22;13899;51.174;4.456;2022-08-11T19:47:49;29.80;48.30
25918;DHT22;13899;51.174;4.456;2022-08-11T19:50:59;29.70;48.40
25918;DHT22;13899;51.174;4.456;2022-08-11T19:54:04;29.50;48.70
25918;DHT22;13899;51.174;4.456;2022-08-11T19:56:55;29.60;48.80
25918;DHT22;13899;51.174;4.456;2022-08-11T19:59:53;29.30;49.10
25918;DHT22;13899;51.174;4.456;2022-08-11T20:02:59;29.10;49.50
25918;DHT22;13899;51.174;4.456;2022-08-11T20:05:47;28.90;49.80
25918;DHT22;13899;51.174;4.456;2022-08-11T20:08:37;28.90;50.00
25918;DHT22;13899;51.174;4.456;2022-08-11T20:11:25;28.70;50.50
25918;DHT22;13899;51.174;4.456;2022-08-11T20:14:11;28.70;50.40
25918;DHT22;13899;51.174;4.456;2022-08-11T20:16:57;28.60;50.60
25918;DHT22;13899;51.174;4.456;2022-08-11T20:19:45;28.60;50.80
25918;DHT22;13899;51.174;4.456;2022-08-11T20:22:40;28.60;51.00
25918;DHT22;13899;51.174;4.456;2022-08-11T20:26:03;28.50;51.30
25918;DHT22;13899;51.174;4.456;2022-08-11T20:28:49;28.40;51.40
25918;DHT22;13899;51.174;4.456;2022-08-11T20:31:35;28.30;51.50
25918;DHT22;13899;51.174;4.456;2022-08-11T20:34:21;28.30;51.80
25918;DHT22;13899;51.174;4.456;2022-08-11T22:10:37;26.20;56.20
25918;DHT22;13899;51.174;4.456;2022-08-11T22:14:08;26.40;56.30
25918;DHT22;13899;51.174;4.456;2022-08-11T22:20:43;26.10;56.70
25918;DHT22;13899;51.174;4.456;2022-08-11T22:27:16;26.10;57.30
25918;DHT22;13899;51.174;4.456;2022-08-11T22:30:36;26.00;57.30
25918;DHT22;13899;51.174;4.456;2022-08-11T22:34:08;26.10;57.40
25918;DHT22;13899;51.174;4.456;2022-08-11T22:42:34;25.80;57.70
25918;DHT22;13899;51.174;4.456;2022-08-11T22:45:28;25.80;57.80
25918;DHT22;13899;51.174;4.456;2022-08-11T22:48:20;25.80;58.10
25918;DHT22;13899;51.174;4.456;2022-08-11T22:51:23;25.70;58.50
25918;DHT22;13899;51.174;4.456;2022-08-11T22:54:53;25.60;58.50
25918;DHT22;13899;51.174;4.456;2022-08-11T22:57:56;25.50;58.60
25918;DHT22;13899;51.174;4.456;2022-08-11T23:01:14;25.60;59.20
25918;DHT22;13899;51.174;4.456;2022-08-11T23:04:05;25.50;59.60
25918;DHT22;13899;51.174;4.456;2022-08-11T23:07:36;25.50;59.50
25918;DHT22;13899;51.174;4.456;2022-08-11T23:10:22;25.30;59.70
25918;DHT22;13899;51.174;4.456;2022-08-11T23:13:10;25.20;60.10
25918;DHT22;13899;51.174;4.456;2022-08-11T23:16:24;25.10;60.10
25918;DHT22;13899;51.174;4.456;2022-08-11T23:19:12;25.10;60.90
25918;DHT22;13899;51.174;4.456;2022-08-11T23:21:58;25.00;60.70
25918;DHT22;13899;51.174;4.456;2022-08-11T23:32:46;24.90;62.00
25918;DHT22;13899;51.174;4.456;2022-08-11T23:35:36;24.90;62.20
25918;DHT22;13899;51.174;4.456;2022-08-11T23:38:23;24.80;62.60
25918;DHT22;13899;51.174;4.456;2022-08-11T23:41:13;24.80;63.20
25918;DHT22;13899;51.174;4.456;2022-08-11T23:44:01;24.60;63.60